createdAt,value
2023-04-15T00:03:05.298Z,96348.69
2023-04-15T00:07:06.876Z,96338.59
2023-04-15T00:11:08.252Z,96335.56
2023-04-15T00:15:11.333Z,96333.72
2023-04-15T00:19:13.163Z,96338.91
2023-04-15T00:23:14.511Z,96332.63
2023-04-15T00:27:15.866Z,96326.28
2023-04-15T00:31:18.764Z,96320.31
2023-04-15T00:35:20.145Z,96309.63
2023-04-15T00:39:22.514Z,96309.09
2023-04-15T00:43:23.858Z,96298.84
2023-04-15T00:47:27.620Z,96301.56
2023-04-15T00:51:29.007Z,96300.97
2023-04-15T00:55:30.449Z,96297.72
2023-04-15T00:59:33.250Z,96295.59
2023-04-15T01:03:36.153Z,96286.84
2023-04-15T01:07:37.798Z,96294.88
2023-04-15T01:11:39.356Z,96288.44
2023-04-15T01:15:40.854Z,96293.22
2023-04-15T01:19:43.576Z,96288.34
2023-04-15T01:23:46.791Z,96291.00
2023-04-15T01:27:49.533Z,96292.44
2023-04-15T01:31:51.339Z,96282.94
2023-04-15T01:35:52.840Z,96289.56
2023-04-15T01:39:54.292Z,96289.25
2023-04-15T01:43:57.032Z,96294.72
2023-04-15T01:47:58.430Z,96285.41
2023-04-15T01:51:59.831Z,96266.97
2023-04-15T01:56:01.440Z,96277.16
2023-04-15T02:00:04.759Z,96288.13
2023-04-15T02:04:06.243Z,96289.66
2023-04-15T02:08:07.615Z,96280.19
2023-04-15T02:12:09.440Z,96284.06
2023-04-15T02:16:18.618Z,96277.34
2023-04-15T02:20:20.046Z,96278.94
2023-04-15T02:24:21.411Z,96274.88
2023-04-15T02:28:22.777Z,96277.34
2023-04-15T02:32:25.578Z,96280.72
2023-04-15T02:36:26.969Z,96284.44
2023-04-15T02:40:28.326Z,96279.16
2023-04-15T02:44:29.691Z,96273.41
2023-04-15T02:48:32.480Z,96278.53
2023-04-15T02:52:33.866Z,96277.34
2023-04-15T02:56:35.235Z,96284.78
2023-04-15T03:00:36.628Z,96285.34
2023-04-15T03:04:39.327Z,96284.06
2023-04-15T03:08:40.713Z,96290.38
2023-04-15T03:12:42.130Z,96280.91
2023-04-15T03:16:43.521Z,96281.63
2023-04-15T03:20:46.275Z,96290.19
2023-04-15T03:24:47.677Z,96276.66
2023-04-15T03:28:49.046Z,96271.78
2023-04-15T03:32:50.448Z,96267.63
2023-04-15T03:36:53.443Z,96274.03
2023-04-15T03:40:54.767Z,96275.16
2023-04-15T03:44:56.095Z,96269.47
2023-04-15T03:48:57.416Z,96272.00
2023-04-15T03:53:00.101Z,96268.88
2023-04-15T03:57:01.483Z,96273.50
2023-04-15T04:01:02.889Z,96273.75
2023-04-15T04:05:04.476Z,96270.06
2023-04-15T04:09:07.320Z,96271.00
2023-04-15T04:13:08.711Z,96278.00
2023-04-15T04:17:10.157Z,96277.69
2023-04-15T04:21:11.595Z,96290.66
2023-04-15T04:25:14.358Z,96284.13
2023-04-15T04:29:15.754Z,96290.22
2023-04-15T04:33:17.090Z,96295.00
2023-04-15T04:37:18.418Z,96302.72
2023-04-15T04:41:21.098Z,96300.50
2023-04-15T04:45:22.420Z,96302.03
2023-04-15T04:49:23.764Z,96319.09
2023-04-15T04:53:25.218Z,96314.75
2023-04-15T04:57:27.919Z,96325.31
2023-04-15T05:01:29.261Z,96333.53
2023-04-15T05:05:30.614Z,96333.63
2023-04-15T05:09:31.983Z,96326.72
2023-04-15T05:13:34.691Z,96326.22
2023-04-15T05:17:36.083Z,96328.75
2023-04-15T05:21:39.433Z,96321.84
2023-04-15T05:25:40.942Z,96318.28
2023-04-15T05:29:43.624Z,96317.97
2023-04-15T05:33:44.986Z,96319.28
2023-04-15T05:37:46.323Z,96318.38
2023-04-15T05:41:47.647Z,96323.28
2023-04-15T05:45:50.424Z,96329.56
2023-04-15T05:49:51.792Z,96331.94
2023-04-15T05:53:53.142Z,96335.66
2023-04-15T05:57:54.556Z,96333.25
2023-04-15T06:01:57.289Z,96328.38
2023-04-15T06:05:58.695Z,96330.00
2023-04-15T06:10:00.028Z,96330.31
2023-04-15T06:14:01.454Z,96338.03
2023-04-15T06:18:04.189Z,96332.22
2023-04-15T06:22:05.521Z,96333.88
2023-04-15T06:26:07.087Z,96330.97
2023-04-15T06:30:08.901Z,96332.00
2023-04-15T06:34:11.610Z,96335.34
2023-04-15T06:38:12.928Z,96333.78
2023-04-15T06:42:14.364Z,96332.44
2023-04-15T06:46:15.791Z,96337.56
2023-04-15T06:50:18.667Z,96341.81
2023-04-15T06:54:20.062Z,96341.81
2023-04-15T06:58:21.463Z,96343.16
2023-04-15T07:02:23.106Z,96351.31
2023-04-15T07:06:25.877Z,96344.88
2023-04-15T07:10:27.233Z,96345.38
2023-04-15T07:14:28.660Z,96337.84
2023-04-15T07:18:30.031Z,96338.47
2023-04-15T07:22:32.869Z,96347.06
2023-04-15T07:26:34.183Z,96344.91
2023-04-15T07:30:35.569Z,96358.47
2023-04-15T07:34:36.983Z,96361.84
2023-04-15T07:38:39.695Z,96350.28
2023-04-15T07:42:41.521Z,96357.63
2023-04-15T07:46:43.143Z,96362.78
2023-04-15T07:50:44.603Z,96362.50
2023-04-15T07:54:47.307Z,96365.28
2023-04-15T07:58:48.627Z,96372.97
2023-04-15T08:02:50.226Z,96377.34
2023-04-15T08:06:51.717Z,96364.03
2023-04-15T08:10:54.399Z,96372.78
2023-04-15T08:14:55.772Z,96385.94
2023-04-15T08:18:57.265Z,96390.38
2023-04-15T08:22:58.686Z,96374.91
2023-04-15T08:27:01.372Z,96379.28
2023-04-15T08:31:03.927Z,96385.03
2023-04-15T08:35:05.674Z,96395.72
2023-04-15T08:39:06.993Z,96400.22
2023-04-15T08:43:11.018Z,96397.97
2023-04-15T08:47:13.519Z,96399.22
2023-04-15T08:51:15.556Z,96404.47
2023-04-15T08:55:17.262Z,96404.75
2023-04-15T08:59:20.097Z,96407.16
2023-04-15T09:03:22.221Z,96410.59
2023-04-15T09:07:23.668Z,96414.78
2023-04-15T09:11:25.000Z,96418.88
2023-04-15T09:15:27.734Z,96407.34
2023-04-15T09:19:29.179Z,96418.72
2023-04-15T09:23:30.585Z,96420.47
2023-04-15T09:27:36.118Z,96421.47
2023-04-15T09:31:39.102Z,96424.22
2023-04-15T09:35:40.434Z,96431.47
2023-04-15T09:39:48.490Z,96432.97
2023-04-15T09:43:49.850Z,96436.13
2023-04-15T09:47:52.595Z,96426.22
2023-04-15T09:52:05.086Z,96436.63
2023-04-15T09:56:07.815Z,96434.19
2023-04-15T10:00:09.580Z,96433.41
2023-04-15T10:04:12.378Z,96437.06
2023-04-15T10:08:14.778Z,96442.28
2023-04-15T10:12:16.957Z,96442.81
2023-04-15T10:16:19.932Z,96442.34
2023-04-15T10:20:23.045Z,96442.41
2023-04-15T10:24:25.269Z,96439.94
2023-04-15T10:28:26.783Z,96446.69
2023-04-15T10:32:28.296Z,96443.47
2023-04-15T10:36:31.003Z,96440.81
2023-04-15T10:40:32.845Z,96439.94
2023-04-15T10:44:35.517Z,96442.56
2023-04-15T10:48:36.910Z,96454.19
2023-04-15T10:52:41.154Z,96447.72
2023-04-15T10:56:42.654Z,96454.69
2023-04-15T11:00:50.091Z,96452.25
2023-04-15T11:04:51.975Z,96454.66
2023-04-15T11:08:55.434Z,96457.50
2023-04-15T11:12:57.801Z,96462.88
2023-04-15T11:16:59.145Z,96452.34
2023-04-15T11:21:01.656Z,96470.81
2023-04-15T11:25:04.815Z,96462.72
2023-04-15T11:29:06.559Z,96467.28
2023-04-15T11:33:09.263Z,96475.22
2023-04-15T11:37:10.741Z,96472.16
2023-04-15T11:41:13.569Z,96477.34
2023-04-15T11:45:15.888Z,96484.97
2023-04-15T11:49:26.135Z,96487.56
2023-04-15T11:53:36.393Z,96487.84
2023-04-15T11:57:39.095Z,96498.00
2023-04-15T12:01:40.992Z,96503.81
2023-04-15T12:06:00.857Z,96507.09
2023-04-15T12:10:03.055Z,96512.03
2023-04-15T12:14:07.311Z,96518.00
2023-04-15T12:18:16.540Z,96522.41
2023-04-15T12:22:18.188Z,96519.44
2023-04-15T12:26:25.856Z,96522.19
2023-04-15T12:30:28.574Z,96523.63
2023-04-15T12:34:30.989Z,96530.75
2023-04-15T12:38:32.361Z,96536.28
2023-04-15T12:42:33.680Z,96542.88
2023-04-15T12:46:36.429Z,96550.16
2023-04-15T12:50:37.819Z,96551.66
2023-04-15T12:54:39.270Z,96553.44
2023-04-15T12:58:40.599Z,96559.78
2023-04-15T13:02:44.788Z,96565.94
2023-04-15T13:06:46.351Z,96576.41
2023-04-15T13:10:47.695Z,96584.31
2023-04-15T13:14:49.020Z,96585.03
2023-04-15T13:18:51.752Z,96594.59
2023-04-15T13:22:53.304Z,96598.91
2023-04-15T13:26:54.682Z,96597.53
2023-04-15T13:30:56.026Z,96595.88
2023-04-15T13:34:58.722Z,96600.53
2023-04-15T13:39:00.450Z,96606.31
2023-04-15T13:43:01.809Z,96618.91
2023-04-15T13:47:03.206Z,96619.50
2023-04-15T13:51:06.058Z,96614.56
2023-04-15T13:55:18.570Z,96621.91
2023-04-15T13:59:22.026Z,96625.50
2023-04-15T14:03:23.474Z,96625.38
2023-04-15T14:07:26.237Z,96628.84
2023-04-15T14:11:27.564Z,96623.88
2023-04-15T14:15:28.902Z,96633.44
2023-04-15T14:19:30.704Z,96635.47
2023-04-15T14:23:33.376Z,96640.59
2023-04-15T14:27:34.698Z,96644.69
2023-04-15T14:31:36.027Z,96647.72
2023-04-15T14:35:37.361Z,96654.41
2023-04-15T14:39:40.061Z,96649.94
2023-04-15T14:43:41.380Z,96659.66
2023-04-15T14:47:42.801Z,96666.50
2023-04-15T14:51:44.240Z,96664.38
2023-04-15T14:55:46.949Z,96678.28
2023-04-15T14:59:48.265Z,96675.50
2023-04-15T15:03:50.123Z,96681.81
2023-04-15T15:07:51.526Z,96693.78
2023-04-15T15:11:54.219Z,96700.28
2023-04-15T15:15:55.637Z,96702.22
2023-04-15T15:19:57.279Z,96707.69
2023-04-15T15:23:58.614Z,96705.19
2023-04-15T15:28:01.345Z,96703.56
2023-04-15T15:32:02.672Z,96710.25
2023-04-15T15:36:04.485Z,96708.56
2023-04-15T15:40:06.551Z,96715.81
2023-04-15T15:44:09.257Z,96717.28
2023-04-15T15:48:10.591Z,96723.19
2023-04-15T15:52:12.059Z,96725.28
2023-04-15T15:56:13.391Z,96734.56
2023-04-15T16:00:16.356Z,96735.06
2023-04-15T16:04:18.106Z,96735.47
2023-04-15T16:08:19.599Z,96745.47
2023-04-15T16:12:20.936Z,96742.13
2023-04-15T16:16:23.697Z,96754.28
2023-04-15T16:20:25.167Z,96760.78
2023-04-15T16:24:26.744Z,96758.94
2023-04-15T16:28:28.065Z,96753.03
2023-04-15T16:32:30.827Z,96764.19
2023-04-15T16:36:33.887Z,96769.66
2023-04-15T16:40:36.610Z,96771.53
2023-04-15T16:44:37.979Z,96782.00
2023-04-15T16:48:40.670Z,96783.31
2023-04-15T16:52:43.452Z,96787.28
2023-04-15T16:56:45.194Z,96789.97
2023-04-15T17:00:50.026Z,96798.25
2023-04-15T17:04:52.864Z,96801.84
2023-04-15T17:08:54.195Z,96802.47
2023-04-15T17:12:55.913Z,96809.34
2023-04-15T17:16:57.353Z,96812.75
2023-04-15T17:21:00.095Z,96821.22
2023-04-15T17:25:01.579Z,96830.06
2023-04-15T17:29:03.166Z,96843.53
2023-04-15T17:33:55.278Z,96842.41
2023-04-15T17:37:28.162Z,96844.69
2023-04-15T17:41:29.709Z,96852.94
2023-04-15T17:45:31.056Z,96859.25
2023-04-15T17:49:32.428Z,96863.53
2023-04-15T17:53:35.186Z,96873.13
2023-04-15T17:57:36.526Z,96865.38
2023-04-15T18:01:37.892Z,96875.69
2023-04-15T18:05:41.364Z,96883.63
2023-04-15T18:09:45.286Z,96887.31
2023-04-15T18:13:46.611Z,96892.50
2023-04-15T18:17:48.280Z,96901.34
2023-04-15T18:21:49.662Z,96906.03
2023-04-15T18:25:52.427Z,96916.75
2023-04-15T18:29:53.770Z,96927.06
2023-04-15T18:33:55.174Z,96928.19
2023-04-15T18:37:56.537Z,96938.47
2023-04-15T18:41:59.223Z,96943.44
2023-04-15T18:46:00.552Z,96947.72
2023-04-15T18:50:02.019Z,96945.88
2023-04-15T18:54:03.433Z,96957.06
2023-04-15T18:58:08.862Z,96961.31
2023-04-15T19:02:10.670Z,96971.38
2023-04-15T19:06:11.981Z,96971.50
2023-04-15T19:10:13.372Z,96981.84
2023-04-15T19:14:17.217Z,96982.72
2023-04-15T19:18:18.588Z,96988.16
2023-04-15T19:22:19.950Z,96987.75
2023-04-15T19:26:21.272Z,96995.53
2023-04-15T19:30:24.051Z,97012.25
2023-04-15T19:34:25.443Z,97005.28
2023-04-15T19:38:26.762Z,97006.00
2023-04-15T19:42:28.095Z,97013.31
2023-04-15T19:46:30.945Z,97015.22
2023-04-15T19:50:32.515Z,97020.97
2023-04-15T19:54:33.859Z,97012.19
2023-04-15T19:58:35.205Z,97013.53
2023-04-15T20:02:38.054Z,97024.59
2023-04-15T20:06:39.423Z,97028.84
2023-04-15T20:10:40.831Z,97027.13
2023-04-15T20:14:42.175Z,97031.00
2023-04-15T20:18:44.884Z,97029.75
2023-04-15T20:22:46.435Z,97034.59
2023-04-15T20:26:47.749Z,97033.06
2023-04-15T20:30:49.111Z,97047.81
2023-04-15T20:34:51.806Z,97044.97
2023-04-15T20:38:53.123Z,97049.44
2023-04-15T20:42:54.443Z,97048.75
2023-04-15T20:46:55.943Z,97062.16
2023-04-15T20:50:58.657Z,97060.75
2023-04-15T20:55:00.038Z,97067.88
2023-04-15T20:59:01.534Z,97062.75
2023-04-15T21:03:03.493Z,97063.03
2023-04-15T21:07:06.377Z,97065.25
2023-04-15T21:11:07.737Z,97071.66
2023-04-15T21:15:09.513Z,97075.66
2023-04-15T21:19:10.891Z,97076.13
2023-04-15T21:23:13.611Z,97085.03
2023-04-15T21:27:14.971Z,97089.59
2023-04-15T21:31:16.366Z,97094.28
2023-04-15T21:35:17.714Z,97095.31
2023-04-15T21:39:20.391Z,97101.78
2023-04-15T21:43:21.715Z,97097.47
2023-04-15T21:47:23.118Z,97112.63
2023-04-15T21:51:24.661Z,97114.41
2023-04-15T21:55:27.407Z,97115.28
2023-04-15T21:59:28.780Z,97118.59
2023-04-15T22:03:30.867Z,97117.53
2023-04-15T22:07:32.389Z,97124.03
2023-04-15T22:11:35.101Z,97133.75
2023-04-15T22:15:36.655Z,97128.69
2023-04-15T22:19:37.995Z,97134.63
2023-04-15T22:23:39.325Z,97137.31
2023-04-15T22:27:42.056Z,97139.84
2023-04-15T22:31:43.436Z,97140.28
2023-04-15T22:35:44.811Z,97145.56
2023-04-15T22:39:46.184Z,97152.97
2023-04-15T22:43:48.856Z,97156.66
2023-04-15T22:47:50.343Z,97154.56
2023-04-15T22:51:51.701Z,97167.72
2023-04-15T22:55:53.033Z,97161.53
2023-04-15T22:59:55.735Z,97160.88
2023-04-15T23:04:06.504Z,97178.88
2023-04-15T23:08:18.359Z,97174.72
2023-04-15T23:12:19.719Z,97174.78
2023-04-15T23:16:22.852Z,97167.41
2023-04-15T23:20:24.272Z,97180.75
2023-04-15T23:24:25.618Z,97186.50
2023-04-15T23:28:26.949Z,97181.97
2023-04-15T23:32:29.677Z,97183.28
2023-04-15T23:36:31.019Z,97191.00
2023-04-15T23:40:32.338Z,97197.09
2023-04-15T23:44:33.699Z,97194.47
2023-04-15T23:48:36.394Z,97194.16
2023-04-15T23:52:37.736Z,97188.44
2023-04-15T23:56:39.083Z,97198.06
